Data for 11/19/2010

Time Sea-Level Adjusted Pressure Absolute Pressure Temperature Relative Humidity Dew Point   
(mb) (inHg) (mb) (inHg) (C) (F) (%) (C) (F)
00:05 1012 29.88 842 24.86 -2.8 26.9 88 -4.5 23.9
00:10 1012 29.88 842 24.86 -2.8 27 88 -4.5 24
00:15 1012 29.88 842 24.86 -2.6 27.3 87 -4.5 23.9
00:20 1012 29.88 842 24.86 -2.6 27.3 87 -4.5 24
00:25 1012 29.88 842 24.86 -2.7 27.1 88 -4.4 24.1
00:30 1013 29.91 842 24.86 -2.8 27 90 -4.3 24.3
00:35 1013 29.91 842 24.86 -2.9 26.8 90 -4.3 24.3
00:40 1012 29.88 842 24.86 -3 26.6 92 -4.1 24.6
00:45 1012 29.88 842 24.86 -2.9 26.7 92 -4.1 24.6
00:50 1012 29.88 842 24.86 -2.9 26.7 91 -4.2 24.5
00:55 1012 29.88 842 24.86 -2.9 26.7 91 -4.2 24.4
01:00 1012 29.88 842 24.86 -3.2 26.2 92 -4.3 24.2
01:05 1012 29.88 842 24.86 -3.1 26.3 91 -4.4 24.1
01:10 1012 29.88 841 24.83 -3.2 26.2 92 -4.3 24.3
01:15 1012 29.88 842 24.86 -3.1 26.4 91 -4.3 24.2
01:20 1012 29.88 842 24.86 -3.1 26.4 91 -4.3 24.3
01:25 1012 29.88 842 24.86 -3.1 26.4 92 -4.3 24.2
01:30 1012 29.88 842 24.86 -3.1 26.4 92 -4.2 24.4
01:35 1012 29.88 842 24.86 -3 26.6 92 -4.2 24.5
01:40 1012 29.88 842 24.86 -3 26.7 91 -4.2 24.5
01:45 1012 29.88 842 24.86 -3 26.7 91 -4.2 24.4
01:50 1012 29.88 841 24.83 -3.1 26.4 91 -4.3 24.3
01:55 1012 29.88 841 24.83 -3.3 26.1 92 -4.5 24
02:00 1012 29.88 841 24.83 -3.3 26.1 92 -4.4 24
02:05 1012 29.88 842 24.86 -3.3 26 93 -4.4 24.1
02:10 1012 29.88 842 24.86 -3.3 26 92 -4.4 24.1
02:15 1012 29.88 842 24.86 -3.4 26 93 -4.4 24.2
02:20 1013 29.91 842 24.86 -3.3 26 93 -4.3 24.2
02:25 1013 29.91 842 24.86 -3.2 26.3 92 -4.3 24.3
02:30 1012 29.88 842 24.86 -3.3 26.1 93 -4.3 24.2
02:35 1012 29.88 842 24.86 -3.3 26 93 -4.4 24.1
02:40 1012 29.88 842 24.86 -3.5 25.7 93 -4.4 24.1
02:45 1012 29.88 842 24.86 -3.5 25.7 93 -4.5 23.8
02:50 1012 29.88 842 24.86 -3.5 25.7 93 -4.5 24
02:55 1012 29.88 842 24.86 -3.5 25.8 93 -4.4 24
03:00 1012 29.88 842 24.86 -3.5 25.7 93 -4.5 24
03:05 1012 29.88 842 24.86 -3.6 25.6 93 -4.5 23.9
03:10 1013 29.91 842 24.86 -3.6 25.5 94 -4.5 23.9
03:15 1013 29.91 842 24.86 -3.5 25.6 94 -4.4 24
03:20 1013 29.91 842 24.86 -3.5 25.6 93 -4.5 23.9
03:25 1012 29.88 842 24.86 -3.6 25.6 93 -4.5 23.8
03:30 1012 29.88 841 24.83 -3.6 25.6 94 -4.5 23.9
03:35 1012 29.88 841 24.83 -3.6 25.5 94 -4.5 23.9
03:40 1012 29.88 841 24.83 -3.6 25.5 94 -4.5 23.9
03:45 1012 29.88 841 24.83 -3.7 25.4 94 -4.5 23.8
03:50 1012 29.88 841 24.83 -3.7 25.3 93 -4.6 23.6
03:55 1012 29.88 841 24.83 -3.8 25.1 94 -4.7 23.6
04:00 1012 29.88 841 24.83 -3.8 25.2 94 -4.6 23.7
04:05 1012 29.88 841 24.83 -3.8 25.1 94 -4.6 23.7
04:10 1012 29.88 841 24.83 -3.9 25 95 -4.6 23.6
04:15 1012 29.88 841 24.83 -3.9 25 95 -4.7 23.6
04:20 1012 29.88 841 24.83 -3.9 25 94 -4.7 23.6
04:25 1012 29.88 841 24.83 -3.9 25.1 94 -4.7 23.5
04:30 1012 29.88 841 24.83 -3.8 25.1 93 -4.8 23.3
04:35 1012 29.88 841 24.83 -3.8 25.2 92 -4.9 23.2
04:40 1012 29.88 841 24.83 -3.8 25.2 92 -4.9 23.2
04:45 1012 29.88 841 24.83 -3.8 25.2 92 -4.9 23.2
04:50 1012 29.88 841 24.83 -3.7 25.3 91 -4.9 23.1
04:55 1012 29.88 841 24.83 -3.7 25.4 91 -5 23.1
05:00 1012 29.88 841 24.83 -3.8 25.2 91 -5 23
05:05 1012 29.88 841 24.83 -3.8 25.1 91 -5.1 22.9
05:10 1012 29.88 841 24.83 -3.8 25.1 91 -5 22.9
05:15 1012 29.88 841 24.83 -3.8 25.2 91 -5.1 22.9
05:20 1012 29.88 841 24.83 -3.7 25.4 91 -5 23
05:25 1012 29.88 841 24.83 -3.7 25.4 90 -5 23
05:30 1012 29.88 841 24.83 -3.7 25.4 91 -5 23
05:35 1012 29.88 841 24.83 -3.6 25.5 91 -4.9 23.1
05:40 1012 29.88 841 24.83 -3.6 25.5 91 -4.9 23.2
05:45 1012 29.88 841 24.83 -3.6 25.5 91 -4.8 23.3
05:50 1012 29.88 841 24.83 -3.6 25.5 92 -4.8 23.3
05:55 1012 29.88 841 24.83 -3.7 25.3 92 -4.8 23.4
06:00 1012 29.88 841 24.83 -3.8 25.2 93 -4.7 23.5
06:05 1012 29.88 841 24.83 -3.8 25.2 94 -4.6 23.7
06:10 1012 29.88 841 24.83 -3.7 25.3 95 -4.5 23.9
06:15 1012 29.88 841 24.83 -3.7 25.3 95 -4.4 24
06:20 1012 29.88 841 24.83 -3.7 25.4 95 -4.4 24
06:25 1012 29.88 841 24.83 -3.7 25.3 95 -4.4 24
06:30 1012 29.88 841 24.83 -3.8 25.2 95 -4.5 24
06:35 1012 29.88 841 24.83 -3.8 25.1 96 -4.4 24
06:40 1012 29.88 841 24.83 -3.7 25.3 96 -4.3 24.2
06:45 1012 29.88 841 24.83 -3.7 25.4 96 -4.3 24.3
06:50 1012 29.88 841 24.83 -3.7 25.4 95 -4.3 24.3
06:55 1012 29.88 841 24.83 -3.7 25.4 96 -4.3 24.3
07:00 1012 29.88 841 24.83 -3.7 25.4 96 -4.2 24.4
07:05 1012 29.88 841 24.83 -3.6 25.5 96 -4.2 24.4
07:10 1012 29.88 841 24.83 -3.6 25.5 96 -4.2 24.4
07:15 1012 29.88 841 24.83 -3.6 25.4 95 -4.3 24.3
07:20 1012 29.88 841 24.83 -3.6 25.5 95 -4.3 24.3
07:25 1012 29.88 841 24.83 -3.7 25.4 95 -4.4 24.1
07:30 1012 29.88 841 24.83 -3.7 25.3 95 -4.4 24.1
07:35 1012 29.88 841 24.83 -3.7 25.4 95 -4.3 24.2
07:40 1012 29.88 841 24.83 -3.6 25.5 95 -4.3 24.3
07:45 1012 29.88 841 24.83 -3.6 25.5 95 -4.3 24.3
07:50 1012 29.88 841 24.83 -3.6 25.6 95 -4.3 24.3
07:55 1012 29.88 841 24.83 -3.5 25.7 95 -4.2 24.4
08:00 1012 29.88 841 24.83 -3.5 25.6 94 -4.4 24.2
08:05 1012 29.88 841 24.83 -3.6 25.6 95 -4.3 24.2
08:10 1012 29.88 841 24.83 -3.6 25.6 95 -4.3 24.2
08:15 1012 29.88 841 24.83 -3.5 25.6 94 -4.3 24.2
08:20 1012 29.88 841 24.83 -3.5 25.7 94 -4.3 24.2
08:25 1012 29.88 841 24.83 -3.5 25.6 94 -4.4 24.2
08:30 1012 29.88 841 24.83 -3.5 25.8 94 -4.3 24.2
08:35 1012 29.88 841 24.83 -3.4 25.9 94 -4.3 24.3
08:40 1012 29.88 841 24.83 -3.3 26.1 93 -4.2 24.4
08:45 1012 29.88 841 24.83 -3.1 26.4 94 -4 24.7
08:50 1012 29.88 841 24.83 -3 26.6 92 -4.1 24.7
08:55 1012 29.88 841 24.83 -3.1 26.5 92 -4.2 24.5
09:00 1012 29.88 841 24.83 -3 26.7 92 -4.1 24.6
09:05 1012 29.88 841 24.83 -3 26.6 91 -4.3 24.3
09:10 1012 29.88 841 24.83 -3 26.6 91 -4.3 24.3
09:15 1012 29.88 841 24.83 -2.9 26.8 90 -4.2 24.4
09:20 1012 29.88 841 24.83 -2.8 27 89 -4.3 24.3
09:25 1012 29.88 841 24.83 -2.9 26.8 89 -4.4 24.1
09:30 1012 29.88 841 24.83 -2.8 26.9 90 -4.3 24.3
09:35 1012 29.88 841 24.83 -2.7 27.2 88 -4.4 24.1
09:40 1012 29.88 841 24.83 -2.6 27.4 87 -4.4 24
09:45 1012 29.88 841 24.83 -2.6 27.4 86 -4.5 23.8
09:50 1012 29.88 841 24.83 -2.6 27.2 88 -4.4 24.1
09:55 1012 29.88 841 24.83 -2.5 27.6 87 -4.4 24.1
10:00 1012 29.88 841 24.83 -2.3 27.9 84 -4.6 23.7
10:05 1012 29.88 841 24.83 -2.3 27.8 86 -4.4 24.1
10:10 1012 29.88 841 24.83 -2.1 28.1 83 -4.6 23.7
10:15 1012 29.88 841 24.83 -2.2 28 86 -4.3 24.2
10:20 1012 29.88 841 24.83 -2.2 28 85 -4.4 24.1
10:25 1012 29.88 841 24.83 -2.3 27.9 85 -4.5 23.9
10:30 1012 29.88 841 24.83 -2.2 28 86 -4.3 24.3
10:35 1012 29.88 841 24.83 -1.9 28.5 86 -4 24.7
10:40 1012 29.88 841 24.83 -1.9 28.6 86 -3.9 25
10:45 1012 29.88 841 24.83 -1.9 28.6 86 -3.9 25
10:50 1012 29.88 841 24.83 -1.9 28.6 86 -3.9 25
10:55 1012 29.88 841 24.83 -1.8 28.7 85 -3.9 24.9
11:00 1012 29.88 841 24.83 -2 28.5 88 -3.7 25.3
11:05 1012 29.88 841 24.83 -2 28.4 88 -3.7 25.4
11:10 1012 29.88 841 24.83 -1.9 28.7 86 -3.9 25
11:15 1012 29.88 841 24.83 -2 28.3 86 -4.1 24.6
11:20 1012 29.88 841 24.83 -2.1 28.3 86 -4.1 24.6
11:25 1011 29.85 841 24.83 -2 28.3 86 -4 24.7
11:30 1011 29.85 841 24.83 -2.2 28.1 88 -4 24.9
11:35 1011 29.85 841 24.83 -2 28.3 86 -4.2 24.5
11:40 1011 29.85 841 24.83 -2.1 28.2 85 -4.3 24.3
11:45 1011 29.85 841 24.83 -2.1 28.2 85 -4.3 24.3
11:50 1011 29.85 840 24.81 -2.2 28.1 84 -4.5 23.9
11:55 1011 29.85 840 24.81 -2.2 28.1 84 -4.5 24
12:00 1011 29.85 840 24.81 -2.1 28.3 85 -4.2 24.5
12:05 1011 29.85 840 24.81 -2 28.4 86 -4.1 24.6
12:10 1011 29.85 840 24.81 -1.9 28.5 86 -4 24.7
12:15 1011 29.85 840 24.81 -1.9 28.6 85 -4.2 24.5
12:20 1011 29.85 840 24.81 -2.1 28.2 87 -4.1 24.6
12:25 1011 29.85 840 24.81 -2.2 28 87 -4 24.7
12:30 1010 29.83 840 24.81 -2.1 28.3 87 -4 24.8
12:35 1010 29.83 840 24.81 -2 28.3 86 -4.1 24.6
12:40 1010 29.83 840 24.81 -2.2 28 86 -4.2 24.4
12:45 1010 29.83 840 24.81 -2.2 28 86 -4.3 24.3
12:50 1010 29.83 839 24.78 -2.1 28.2 84 -4.4 24.1
12:55 1010 29.83 839 24.78 -2.2 28 84 -4.5 23.9
13:00 1010 29.83 839 24.78 -2.3 27.8 81 -5.1 22.7
13:05 1010 29.83 839 24.78 -2.4 27.6 81 -5.3 22.5
13:10 1010 29.83 839 24.78 -2.3 27.8 81 -5.3 22.5
13:15 1010 29.83 839 24.78 -2.4 27.7 82 -5.1 22.9
13:20 1010 29.83 839 24.78 -2.4 27.7 82 -5.1 22.9
13:25 1010 29.83 839 24.78 -2.5 27.5 81 -5.4 22.3
13:30 1010 29.83 839 24.78 -2.7 27.2 81 -5.5 22
13:35 1010 29.83 839 24.78 -2.7 27.1 81 -5.5 22.1
13:40 1010 29.83 839 24.78 -2.7 27.1 81 -5.6 21.9
13:45 1010 29.83 839 24.78 -2.8 26.9 80 -5.9 21.4
13:50 1010 29.83 839 24.78 -2.9 26.8 81 -5.8 21.6
13:55 1010 29.83 839 24.78 -3 26.6 80 -6 21.3
14:00 1010 29.83 839 24.78 -3.1 26.3 81 -6 21.2
14:05 1010 29.83 839 24.78 -3.3 26.1 81 -6.1 21.1
14:10 1010 29.83 839 24.78 -3.3 26 79 -6.5 20.3
14:15 1010 29.83 839 24.78 -3.6 25.6 79 -6.7 20
14:20 1010 29.83 839 24.78 -3.7 25.3 80 -6.6 20.1
14:25 1010 29.83 839 24.78 -3.7 25.4 80 -6.6 20.1
14:30 1009 29.8 839 24.78 -3.7 25.3 81 -6.6 20.2
14:35 1009 29.8 839 24.78 -3.7 25.4 79 -6.8 19.7
14:40 1009 29.8 839 24.78 -3.9 24.9 81 -6.8 19.7
14:45 1009 29.8 839 24.78 -4.2 24.5 80 -7.1 19.2
14:50 1009 29.8 839 24.78 -4.5 23.9 81 -7.3 18.9
14:55 1009 29.8 839 24.78 -4.8 23.4 83 -7.2 19
15:00 1009 29.8 838 24.75 -4.9 23.2 83 -7.4 18.6
15:05 1009 29.8 838 24.75 -5 23 83 -7.5 18.5
15:10 1009 29.8 838 24.75 -5.1 22.8 83 -7.6 18.3
15:15 1009 29.8 838 24.75 -5.2 22.7 83 -7.7 18.2
15:20 1009 29.8 838 24.75 -5.3 22.5 82 -7.8 17.9
15:25 1009 29.8 838 24.75 -5.4 22.2 82 -8 17.5
15:30 1009 29.8 838 24.75 -5.5 22.2 82 -8.1 17.5
15:35 1009 29.8 838 24.75 -5.4 22.3 81 -8.1 17.4
15:40 1009 29.8 838 24.75 -5.4 22.3 81 -8.2 17.3
15:45 1009 29.8 838 24.75 -5.5 22 82 -8.2 17.3
15:50 1009 29.8 838 24.75 -5.7 21.7 84 -8.1 17.5
15:55 1009 29.8 838 24.75 -5.9 21.4 84 -8.1 17.4
16:00 1009 29.8 838 24.75 -6 21.1 85 -8.2 17.2
16:05 1009 29.8 838 24.75 -6 21.1 84 -8.3 17
16:10 1009 29.8 838 24.75 -6.1 21.1 84 -8.4 16.9
16:15 1009 29.8 838 24.75 -6.1 21.1 82 -8.7 16.4
16:20 1009 29.8 838 24.75 -6.1 21 82 -8.8 16.2
16:25 1009 29.8 838 24.75 -6.1 20.9 81 -8.9 16
16:30 1009 29.8 838 24.75 -6.2 20.9 81 -9 15.8
16:35 1009 29.8 838 24.75 -6.2 20.9 81 -9 15.9
16:40 1009 29.8 838 24.75 -6.2 20.8 81 -8.9 16
16:45 1009 29.8 838 24.75 -6.3 20.7 81 -8.9 15.9
16:50 1009 29.8 838 24.75 -6.2 20.8 81 -9 15.7
16:55 1009 29.8 838 24.75 -6.2 20.9 81 -8.9 16
17:00 1009 29.8 838 24.75 -6.2 20.8 81 -8.9 15.9
17:05 1009 29.8 838 24.75 -6.4 20.5 82 -8.9 15.9
17:10 1009 29.8 838 24.75 -6.4 20.4 82 -9 15.8
17:15 1009 29.8 838 24.75 -6.4 20.4 82 -9.1 15.6
17:20 1009 29.8 838 24.75 -6.5 20.3 81 -9.2 15.4
17:25 1009 29.8 838 24.75 -6.5 20.3 81 -9.2 15.4
17:30 1009 29.8 838 24.75 -6.5 20.3 80 -9.4 15.1
17:35 1009 29.8 838 24.75 -6.5 20.3 81 -9.3 15.2
17:40 1009 29.8 838 24.75 -6.5 20.4 80 -9.4 15.1
17:45 1009 29.8 838 24.75 -6.4 20.4 80 -9.4 15.1
17:50 1009 29.8 838 24.75 -6.4 20.5 79 -9.4 15.1
17:55 1009 29.8 838 24.75 -6.3 20.6 79 -9.4 15.1
18:00 1009 29.8 838 24.75 -6.3 20.6 79 -9.4 15.1
18:05 1009 29.8 838 24.75 -6.3 20.6 79 -9.4 15
18:10 1009 29.8 838 24.75 -6.3 20.6 78 -9.6 14.7
18:15 1009 29.8 838 24.75 -6.3 20.6 79 -9.4 15
18:20 1009 29.8 838 24.75 -6.3 20.6 79 -9.5 15
18:25 1009 29.8 838 24.75 -6.4 20.5 79 -9.5 15
18:30 1009 29.8 838 24.75 -6.4 20.5 79 -9.5 14.9
18:35 1009 29.8 838 24.75 -6.4 20.5 79 -9.5 15
18:40 1009 29.8 838 24.75 -6.4 20.5 80 -9.4 15.1
18:45 1009 29.8 838 24.75 -6.4 20.5 80 -9.3 15.2
18:50 1009 29.8 838 24.75 -6.4 20.5 80 -9.4 15.2
18:55 1009 29.8 838 24.75 -6.4 20.4 81 -9.2 15.4
19:00 1009 29.8 838 24.75 -6.6 20.2 82 -9.1 15.6
19:05 1009 29.8 838 24.75 -6.7 20 82 -9.2 15.4
19:10 1009 29.8 838 24.75 -6.8 19.9 83 -9.2 15.4
19:15 1009 29.8 838 24.75 -6.8 19.8 83 -9.2 15.5
19:20 1009 29.8 838 24.75 -6.8 19.7 83 -9.2 15.4
19:25 1009 29.8 838 24.75 -6.8 19.7 83 -9.2 15.5
19:30 1009 29.8 838 24.75 -6.9 19.7 84 -9.2 15.5
19:35 1009 29.8 838 24.75 -6.9 19.6 84 -9.2 15.5
19:40 1009 29.8 838 24.75 -6.9 19.5 85 -9.1 15.6
19:45 1009 29.8 838 24.75 -7 19.4 86 -9 15.8
19:50 1009 29.8 838 24.75 -7.1 19.2 86 -9 15.7
19:55 1009 29.8 838 24.75 -7.2 19 85 -9.3 15.3
20:00 1009 29.8 838 24.75 -7.2 19 86 -9.2 15.4
20:05 1009 29.8 838 24.75 -7.2 19 86 -9.1 15.6
20:10 1009 29.8 838 24.75 -7.3 18.9 86 -9.2 15.4
20:15 1009 29.8 838 24.75 -7.4 18.7 86 -9.4 15
20:20 1009 29.8 838 24.75 -7.5 18.5 85 -9.6 14.7
20:25 1009 29.8 838 24.75 -7.5 18.5 83 -9.9 14.2
20:30 1009 29.8 838 24.75 -7.5 18.5 82 -10 14
20:35 1009 29.8 838 24.75 -7.5 18.5 81 -10.2 13.6
20:40 1009 29.8 838 24.75 -7.5 18.5 82 -10.1 13.9
20:45 1009 29.8 838 24.75 -7.5 18.4 82 -10.1 13.9
20:50 1009 29.8 838 24.75 -7.6 18.4 84 -9.9 14.2
20:55 1009 29.8 838 24.75 -7.5 18.5 83 -9.9 14.2
21:00 1009 29.8 838 24.75 -7.5 18.5 84 -9.7 14.5
21:05 1009 29.8 838 24.75 -7.4 18.7 83 -9.7 14.5
21:10 1009 29.8 838 24.75 -7.4 18.8 83 -9.8 14.3
21:15 1009 29.8 838 24.75 -7.4 18.6 82 -9.9 14.1
21:20 1009 29.8 838 24.75 -7.5 18.4 82 -10.1 13.9
21:25 1009 29.8 838 24.75 -7.6 18.4 81 -10.2 13.6
21:30 1009 29.8 838 24.75 -7.6 18.3 81 -10.3 13.4
21:35 1009 29.8 838 24.75 -7.6 18.3 81 -10.3 13.4
21:40 1009 29.8 838 24.75 -7.7 18.2 81 -10.3 13.5
21:45 1009 29.8 838 24.75 -7.6 18.4 80 -10.4 13.2
21:50 1009 29.8 838 24.75 -7.6 18.4 80 -10.4 13.3
21:55 1009 29.8 838 24.75 -7.5 18.5 80 -10.3 13.4
22:00 1009 29.8 838 24.75 -7.4 18.6 80 -10.3 13.4
22:05 1009 29.8 838 24.75 -7.5 18.4 79 -10.6 12.9
22:10 1009 29.8 838 24.75 -7.7 18.2 78 -10.8 12.5
22:15 1009 29.8 838 24.75 -7.6 18.4 76 -11 12.2
22:20 1009 29.8 838 24.75 -7.4 18.8 76 -10.9 12.4
22:25 1009 29.8 838 24.75 -7.4 18.7 76 -10.8 12.5
22:30 1009 29.8 838 24.75 -7.4 18.7 76 -10.9 12.4
22:35 1009 29.8 838 24.75 -7.5 18.5 78 -10.8 12.6
22:40 1009 29.8 838 24.75 -7.7 18.1 78 -10.9 12.4
22:45 1009 29.8 838 24.75 -7.8 17.9 78 -11.1 12.1
22:50 1009 29.8 838 24.75 -8 17.6 79 -11 12.2
22:55 1009 29.8 838 24.75 -8.2 17.2 82 -10.8 12.5
23:00 1009 29.8 838 24.75 -8.6 16.6 83 -10.9 12.4
23:05 1009 29.8 838 24.75 -8.7 16.3 83 -11.1 12.1
23:10 1009 29.8 838 24.75 -8.9 16 83 -11.3 11.6
23:15 1009 29.8 838 24.75 -8.9 16 82 -11.5 11.4
23:20 1009 29.8 838 24.75 -8.9 15.9 81 -11.6 11.2
23:25 1009 29.8 838 24.75 -8.9 15.9 80 -11.8 10.8
23:30 1009 29.8 838 24.75 -9 15.8 80 -11.8 10.8
23:35 1009 29.8 838 24.75 -8.9 15.9 80 -11.7 10.9
23:40 1009 29.8 838 24.75 -9 15.9 80 -11.8 10.7
23:45 1009 29.8 838 24.75 -9.1 15.6 80 -11.9 10.5
23:50 1009 29.8 838 24.75 -9.2 15.5 81 -11.9 10.7
23:55 1009 29.8 839 24.78 -9.2 15.5 81 -11.9 10.7
24:00 1009 29.8 839 24.78 -9.2 15.5 82 -11.7 10.9